createdAt,value
2019-03-31T00:00:34.170Z,98018.00
2019-03-31T00:03:03.600Z,98027.00
2019-03-31T00:05:33.088Z,98009.00
2019-03-31T00:08:02.483Z,98015.00
2019-03-31T00:10:31.861Z,98011.00
2019-03-31T00:13:01.290Z,98018.00
2019-03-31T00:15:31.095Z,98012.00
2019-03-31T00:18:00.444Z,98023.00
2019-03-31T00:20:29.799Z,98009.00
2019-03-31T00:22:59.752Z,98024.00
2019-03-31T00:25:29.091Z,98033.00
2019-03-31T00:27:58.455Z,98018.00
2019-03-31T00:30:27.811Z,98013.00
2019-03-31T00:32:57.149Z,98015.00
2019-03-31T00:35:26.507Z,98015.00
2019-03-31T00:37:55.905Z,98024.00
2019-03-31T00:40:25.262Z,98014.00
2019-03-31T00:42:54.615Z,98012.00
2019-03-31T00:45:24.081Z,98018.00
2019-03-31T00:47:53.440Z,98006.00
2019-03-31T00:50:22.803Z,98000.00
2019-03-31T00:52:52.195Z,98011.00
2019-03-31T00:55:21.568Z,98001.00
2019-03-31T00:57:50.902Z,98010.00
2019-03-31T01:00:41.083Z,98017.00
2019-03-31T01:03:10.759Z,98012.00
2019-03-31T01:05:44.511Z,98010.00
2019-03-31T01:08:14.369Z,98024.00
2019-03-31T01:10:44.170Z,98018.00
2019-03-31T01:13:14.478Z,98016.00
2019-03-31T01:15:44.590Z,98018.00
2019-03-31T01:18:15.149Z,98025.00
2019-03-31T01:20:45.150Z,98005.00
2019-03-31T01:23:14.532Z,98009.00
2019-03-31T01:25:43.888Z,98015.00
2019-03-31T01:28:13.387Z,98029.00
2019-03-31T01:30:42.851Z,98017.00
2019-03-31T01:33:14.148Z,98004.00
2019-03-31T01:35:43.537Z,98015.00
2019-03-31T01:38:13.113Z,98015.00
2019-03-31T01:40:42.464Z,98010.00
2019-03-31T01:43:11.906Z,98017.00
2019-03-31T01:45:41.291Z,98013.00
2019-03-31T01:48:10.652Z,98010.00
2019-03-31T01:50:40.022Z,98022.00
2019-03-31T01:53:09.433Z,98010.00
2019-03-31T02:14:55.666Z,98031.00
2019-03-31T02:17:25.026Z,98030.00
2019-03-31T02:19:54.378Z,98026.00
2019-03-31T02:22:23.749Z,98025.00
2019-03-31T02:24:53.098Z,98027.00
2019-03-31T02:27:22.466Z,98012.00
2019-03-31T02:29:51.840Z,98014.00
2019-03-31T02:32:24.024Z,98011.00
2019-03-31T02:34:52.272Z,98001.00
2019-03-31T02:37:22.041Z,98022.00
2019-03-31T02:39:51.401Z,98021.00
2019-03-31T02:42:20.757Z,98025.00
2019-03-31T02:44:50.124Z,98011.00
2019-03-31T02:47:19.489Z,98014.00
2019-03-31T02:49:48.852Z,98004.00
2019-03-31T02:52:18.266Z,98010.00
2019-03-31T02:54:47.617Z,98022.00
2019-03-31T02:57:19.069Z,98011.00
2019-03-31T02:59:50.697Z,98009.00
2019-03-31T03:02:40.630Z,98018.00
2019-03-31T03:05:16.970Z,98008.00
2019-03-31T03:07:32.111Z,98000.00
2019-03-31T03:10:04.591Z,98004.00
2019-03-31T03:12:37.423Z,97999.00
2019-03-31T03:15:07.602Z,98007.00
2019-03-31T03:17:37.357Z,98006.00
2019-03-31T03:20:08.765Z,97991.00
2019-03-31T03:22:38.115Z,97996.00
2019-03-31T03:25:10.582Z,98009.00
2019-03-31T03:27:39.951Z,98007.00
2019-03-31T03:30:09.465Z,98005.00
2019-03-31T03:32:39.293Z,98012.00
2019-03-31T03:35:08.800Z,98006.00
2019-03-31T03:37:38.151Z,98002.00
2019-03-31T03:40:08.137Z,97999.00
2019-03-31T03:42:37.532Z,98004.00
2019-03-31T03:45:08.187Z,97999.00
2019-03-31T03:47:37.588Z,98003.00
2019-03-31T03:50:08.274Z,98015.00
2019-03-31T03:52:37.652Z,98001.00
2019-03-31T03:55:07.527Z,98023.00
2019-03-31T03:57:36.896Z,98018.00
2019-03-31T04:00:07.276Z,98012.00
2019-03-31T04:02:36.658Z,98021.00
2019-03-31T04:05:06.942Z,98012.00
2019-03-31T04:07:36.293Z,98017.00
2019-03-31T04:10:10.932Z,98016.00
2019-03-31T04:12:40.300Z,98008.00
2019-03-31T04:15:09.676Z,98018.00
2019-03-31T04:17:39.034Z,98007.00
2019-03-31T04:20:08.379Z,98018.00
2019-03-31T04:22:38.068Z,98025.00
2019-03-31T04:25:07.434Z,98016.00
2019-03-31T04:27:36.795Z,98026.00
2019-03-31T04:30:06.545Z,98033.00
2019-03-31T04:32:38.769Z,98027.00
2019-03-31T04:35:07.469Z,98040.00
2019-03-31T04:37:36.834Z,98016.00
2019-03-31T04:40:07.250Z,98025.00
2019-03-31T04:42:36.589Z,98033.00
2019-03-31T04:45:07.224Z,98028.00
2019-03-31T04:47:36.637Z,98040.00
2019-03-31T04:50:07.000Z,98037.00
2019-03-31T04:52:36.360Z,98033.00
2019-03-31T04:55:09.056Z,98038.00
2019-03-31T04:57:38.419Z,98039.00
2019-03-31T05:00:07.985Z,98039.00
2019-03-31T05:02:37.396Z,98053.00
2019-03-31T05:05:06.956Z,98049.00
2019-03-31T05:07:36.321Z,98062.00
2019-03-31T05:10:08.151Z,98055.00
2019-03-31T05:12:37.521Z,98071.00
2019-03-31T05:15:07.324Z,98069.00
2019-03-31T05:17:37.103Z,98066.00
2019-03-31T05:20:07.200Z,98066.00
2019-03-31T05:22:36.555Z,98063.00
2019-03-31T05:25:07.548Z,98063.00
2019-03-31T05:27:36.941Z,98067.00
2019-03-31T05:30:09.110Z,98071.00
2019-03-31T05:32:38.872Z,98090.00
2019-03-31T05:35:08.552Z,98084.00
2019-03-31T05:37:50.203Z,98084.00
2019-03-31T05:40:09.284Z,98077.00
2019-03-31T05:42:38.704Z,98085.00
2019-03-31T05:45:08.295Z,98089.00
2019-03-31T05:47:37.696Z,98082.00
2019-03-31T05:50:07.677Z,98084.00
2019-03-31T05:52:37.037Z,98092.00
2019-03-31T05:55:07.551Z,98091.00
2019-03-31T05:57:36.913Z,98095.00
2019-03-31T06:00:07.902Z,98103.00
2019-03-31T06:02:37.277Z,98097.00
2019-03-31T06:05:07.873Z,98112.00
2019-03-31T06:07:37.245Z,98112.00
2019-03-31T06:10:08.679Z,98108.00
2019-03-31T06:12:38.040Z,98118.00
2019-03-31T06:15:07.836Z,98102.00
2019-03-31T06:17:37.232Z,98102.00
2019-03-31T06:20:07.936Z,98104.00
2019-03-31T06:22:37.304Z,98092.00
2019-03-31T06:25:07.467Z,98106.00
2019-03-31T06:27:37.458Z,98102.00
2019-03-31T06:30:08.233Z,98102.00
2019-03-31T06:32:37.623Z,98100.00
2019-03-31T06:35:07.413Z,98107.00
2019-03-31T06:37:36.763Z,98108.00
2019-03-31T06:40:06.741Z,98108.00
2019-03-31T06:42:36.095Z,98093.00
2019-03-31T06:45:07.396Z,98101.00
2019-03-31T06:47:36.811Z,98104.00
2019-03-31T06:50:09.347Z,98110.00
2019-03-31T06:52:38.726Z,98105.00
2019-03-31T06:55:09.139Z,98101.00
2019-03-31T06:57:38.569Z,98101.00
2019-03-31T07:00:09.338Z,98102.00
2019-03-31T07:02:38.719Z,98109.00
2019-03-31T07:05:08.792Z,98105.00
2019-03-31T07:07:38.165Z,98104.00
2019-03-31T07:10:08.481Z,98114.00
2019-03-31T07:12:37.995Z,98109.00
2019-03-31T07:15:09.164Z,98124.00
2019-03-31T07:17:39.028Z,98122.00
2019-03-31T07:20:10.799Z,98110.00
2019-03-31T07:22:40.285Z,98118.00
2019-03-31T07:25:13.149Z,98121.00
2019-03-31T07:27:42.561Z,98101.00
2019-03-31T07:30:17.272Z,98108.00
2019-03-31T07:32:46.728Z,98099.00
2019-03-31T07:35:18.805Z,98106.00
2019-03-31T07:37:48.007Z,98102.00
2019-03-31T07:40:21.198Z,98108.00
2019-03-31T07:42:51.200Z,98110.00
2019-03-31T07:45:21.068Z,98107.00
2019-03-31T07:47:50.917Z,98116.00
2019-03-31T07:50:20.599Z,98115.00
2019-03-31T07:52:50.033Z,98103.00
2019-03-31T07:55:20.622Z,98113.00
2019-03-31T07:57:49.991Z,98117.00
2019-03-31T08:00:22.594Z,98110.00
2019-03-31T08:02:51.995Z,98118.00
2019-03-31T08:05:32.463Z,98122.00
2019-03-31T08:07:52.551Z,98122.00
2019-03-31T08:10:22.454Z,98119.00
2019-03-31T08:12:51.823Z,98125.00
2019-03-31T08:15:21.344Z,98123.00
2019-03-31T08:17:50.779Z,98129.00
2019-03-31T08:20:20.964Z,98133.00
2019-03-31T08:22:50.332Z,98123.00
2019-03-31T08:25:21.031Z,98133.00
2019-03-31T08:27:50.419Z,98133.00
2019-03-31T08:30:20.207Z,98145.00
2019-03-31T08:32:50.440Z,98146.00
2019-03-31T08:35:19.895Z,98136.00
2019-03-31T08:37:49.267Z,98138.00
2019-03-31T08:40:18.799Z,98141.00
2019-03-31T08:42:48.158Z,98145.00
2019-03-31T08:45:17.758Z,98146.00
2019-03-31T08:47:47.191Z,98149.00
2019-03-31T08:50:17.492Z,98143.00
2019-03-31T08:52:46.849Z,98136.00
2019-03-31T08:55:16.767Z,98139.00
2019-03-31T08:57:46.128Z,98146.00
2019-03-31T09:00:21.184Z,98150.00
2019-03-31T09:02:51.042Z,98156.00
2019-03-31T09:05:20.394Z,98155.00
2019-03-31T09:07:49.746Z,98160.00
2019-03-31T09:10:19.194Z,98152.00
2019-03-31T09:12:48.941Z,98167.00
2019-03-31T09:15:18.466Z,98169.00
2019-03-31T09:17:47.858Z,98159.00
2019-03-31T09:20:18.638Z,98166.00
2019-03-31T09:22:48.022Z,98150.00
2019-03-31T09:25:17.422Z,98152.00
2019-03-31T09:27:46.787Z,98154.00
2019-03-31T09:30:17.765Z,98156.00
2019-03-31T09:32:47.131Z,98156.00
2019-03-31T09:35:17.861Z,98148.00
2019-03-31T09:37:47.227Z,98151.00
2019-03-31T09:40:17.071Z,98153.00
2019-03-31T09:42:46.434Z,98165.00
2019-03-31T09:45:15.990Z,98163.00
2019-03-31T09:47:45.700Z,98168.00
2019-03-31T09:50:17.536Z,98165.00
2019-03-31T09:52:47.186Z,98164.00
2019-03-31T09:55:16.663Z,98176.00
2019-03-31T09:57:46.032Z,98157.00
2019-03-31T10:00:20.010Z,98160.00
2019-03-31T10:02:49.434Z,98164.00
2019-03-31T10:05:18.932Z,98161.00
2019-03-31T10:07:48.451Z,98164.00
2019-03-31T10:10:33.982Z,98162.00
2019-03-31T10:13:03.348Z,98161.00
2019-03-31T10:15:32.715Z,98167.00
2019-03-31T10:18:02.758Z,98183.00
2019-03-31T10:20:32.117Z,98176.00
2019-03-31T10:23:01.479Z,98187.00
2019-03-31T10:25:30.946Z,98187.00
2019-03-31T10:28:00.307Z,98178.00
2019-03-31T10:30:38.324Z,98184.00
2019-03-31T10:33:08.836Z,98173.00
2019-03-31T10:35:38.193Z,98189.00
2019-03-31T10:38:09.444Z,98187.00
2019-03-31T10:40:41.536Z,98175.00
2019-03-31T10:43:10.903Z,98187.00
2019-03-31T10:45:40.282Z,98180.00
2019-03-31T10:48:20.196Z,98185.00
2019-03-31T10:50:40.813Z,98195.00
2019-03-31T10:53:13.658Z,98175.00
2019-03-31T10:55:43.014Z,98186.00
2019-03-31T10:58:12.368Z,98192.00
2019-03-31T11:00:44.569Z,98190.00
2019-03-31T11:03:12.925Z,98186.00
2019-03-31T11:05:42.434Z,98197.00
2019-03-31T11:08:11.807Z,98201.00
2019-03-31T11:10:41.193Z,98188.00
2019-03-31T11:13:10.576Z,98192.00
2019-03-31T11:15:40.049Z,98196.00
2019-03-31T11:18:09.415Z,98186.00
2019-03-31T11:20:38.794Z,98204.00
2019-03-31T11:23:21.871Z,98195.00
2019-03-31T11:25:51.220Z,98207.00
2019-03-31T11:28:20.589Z,98202.00
2019-03-31T11:30:50.661Z,98188.00
2019-03-31T11:33:20.012Z,98203.00
2019-03-31T11:35:49.393Z,98195.00
2019-03-31T11:38:18.793Z,98204.00
2019-03-31T11:40:49.182Z,98198.00
2019-03-31T11:43:18.568Z,98189.00
2019-03-31T11:45:48.072Z,98196.00
2019-03-31T11:48:17.441Z,98218.00
2019-03-31T11:50:46.806Z,98214.00
2019-03-31T11:53:17.050Z,98204.00
2019-03-31T11:55:46.421Z,98211.00
2019-03-31T11:58:15.817Z,98208.00
2019-03-31T12:00:53.105Z,98216.00
2019-03-31T12:03:22.477Z,98219.00
2019-03-31T12:05:51.928Z,98216.00
2019-03-31T12:08:21.814Z,98215.00
2019-03-31T12:10:51.199Z,98218.00
2019-03-31T12:13:20.569Z,98215.00
2019-03-31T12:15:49.963Z,98217.00
2019-03-31T12:18:19.344Z,98228.00
2019-03-31T12:20:48.728Z,98223.00
2019-03-31T12:23:18.118Z,98222.00
2019-03-31T12:25:47.551Z,98221.00
2019-03-31T12:28:16.956Z,98221.00
2019-03-31T12:30:46.732Z,98232.00
2019-03-31T12:33:16.119Z,98214.00
2019-03-31T12:35:45.498Z,98221.00
2019-03-31T12:38:14.932Z,98223.00
2019-03-31T12:40:44.307Z,98215.00
2019-03-31T12:43:14.149Z,98217.00
2019-03-31T12:45:43.629Z,98209.00
2019-03-31T12:48:12.988Z,98201.00
2019-03-31T12:50:42.374Z,98212.00
2019-03-31T12:53:12.302Z,98205.00
2019-03-31T12:55:41.663Z,98225.00
2019-03-31T12:58:11.030Z,98215.00
2019-03-31T13:00:40.417Z,98212.00
2019-03-31T13:03:09.777Z,98200.00
2019-03-31T13:05:39.148Z,98198.00
2019-03-31T13:08:08.555Z,98195.00
2019-03-31T13:10:37.948Z,98203.00
2019-03-31T13:13:07.449Z,98206.00
2019-03-31T13:15:36.890Z,98208.00
2019-03-31T13:18:06.408Z,98204.00
2019-03-31T13:20:35.765Z,98210.00
2019-03-31T13:23:05.217Z,98200.00
2019-03-31T13:25:34.578Z,98200.00
2019-03-31T13:28:05.687Z,98197.00
2019-03-31T13:30:35.189Z,98191.00
2019-03-31T13:33:04.551Z,98202.00
2019-03-31T13:35:33.916Z,98203.00
2019-03-31T13:38:10.785Z,98195.00
2019-03-31T13:40:34.521Z,98205.00
2019-03-31T13:43:03.952Z,98198.00
2019-03-31T13:45:33.972Z,98190.00
2019-03-31T13:48:03.378Z,98195.00
2019-03-31T13:50:33.508Z,98192.00
2019-03-31T13:53:03.150Z,98189.00
2019-03-31T13:55:32.496Z,98184.00
2019-03-31T13:58:03.227Z,98186.00
2019-03-31T14:00:40.750Z,98183.00
2019-03-31T14:03:10.467Z,98185.00
2019-03-31T14:05:39.840Z,98191.00
2019-03-31T14:08:09.331Z,98176.00
2019-03-31T14:10:38.710Z,98192.00
2019-03-31T14:13:08.085Z,98178.00
2019-03-31T14:15:37.474Z,98177.00
2019-03-31T14:18:06.857Z,98177.00
2019-03-31T14:20:36.214Z,98169.00
2019-03-31T14:23:06.045Z,98181.00
2019-03-31T14:25:35.405Z,98175.00
2019-03-31T14:28:04.776Z,98181.00
2019-03-31T14:30:34.159Z,98174.00
2019-03-31T14:33:03.529Z,98184.00
2019-03-31T14:35:32.884Z,98184.00
2019-03-31T14:38:02.389Z,98190.00
2019-03-31T14:40:31.740Z,98182.00
2019-03-31T14:43:01.123Z,98167.00
2019-03-31T14:45:33.605Z,98164.00
2019-03-31T14:48:03.382Z,98188.00
2019-03-31T14:50:35.836Z,98181.00
2019-03-31T14:53:05.788Z,98173.00
2019-03-31T14:55:35.285Z,98162.00
2019-03-31T14:58:07.780Z,98155.00
2019-03-31T15:00:36.917Z,98163.00
2019-03-31T15:03:06.528Z,98153.00
2019-03-31T15:05:35.889Z,98158.00
2019-03-31T15:08:05.604Z,98157.00
2019-03-31T15:10:35.197Z,98163.00
2019-03-31T15:13:04.625Z,98173.00
2019-03-31T15:15:34.113Z,98158.00
2019-03-31T15:18:03.604Z,98158.00
2019-03-31T15:20:32.968Z,98159.00
2019-03-31T15:23:02.680Z,98151.00
2019-03-31T15:25:32.033Z,98159.00
2019-03-31T15:28:01.486Z,98152.00
2019-03-31T15:30:30.933Z,98153.00
2019-03-31T15:33:00.319Z,98143.00
2019-03-31T15:35:29.701Z,98140.00
2019-03-31T15:37:59.089Z,98155.00
2019-03-31T15:40:28.455Z,98157.00
2019-03-31T15:42:57.828Z,98148.00
2019-03-31T15:45:27.699Z,98156.00
2019-03-31T15:47:57.085Z,98158.00
2019-03-31T15:50:27.179Z,98158.00
2019-03-31T15:52:56.568Z,98155.00
2019-03-31T15:55:25.957Z,98159.00
2019-03-31T15:57:55.329Z,98164.00
2019-03-31T16:00:24.723Z,98161.00
2019-03-31T16:02:54.092Z,98165.00
2019-03-31T16:05:23.465Z,98162.00
2019-03-31T16:07:52.975Z,98159.00
2019-03-31T16:10:22.344Z,98158.00
2019-03-31T16:12:51.753Z,98155.00
2019-03-31T16:15:21.272Z,98162.00
2019-03-31T16:17:50.663Z,98166.00
2019-03-31T16:20:22.771Z,98177.00
2019-03-31T16:22:52.200Z,98172.00
2019-03-31T16:25:26.147Z,98159.00
2019-03-31T16:27:55.901Z,98160.00
2019-03-31T16:30:25.400Z,98166.00
2019-03-31T16:32:54.767Z,98163.00
2019-03-31T16:35:24.125Z,98164.00
2019-03-31T16:37:53.559Z,98151.00
2019-03-31T16:40:22.904Z,98158.00
2019-03-31T16:42:52.257Z,98160.00
2019-03-31T16:45:21.672Z,98159.00
2019-03-31T16:47:51.029Z,98164.00
2019-03-31T16:50:20.385Z,98178.00
2019-03-31T16:52:52.825Z,98158.00
2019-03-31T16:55:22.377Z,98161.00
2019-03-31T16:57:51.739Z,98161.00
2019-03-31T17:00:21.785Z,98164.00
2019-03-31T17:02:51.152Z,98172.00
2019-03-31T17:05:22.295Z,98161.00
2019-03-31T17:07:51.613Z,98171.00
2019-03-31T17:10:20.971Z,98178.00
2019-03-31T17:12:50.350Z,98172.00
2019-03-31T17:15:19.771Z,98162.00
2019-03-31T17:17:49.128Z,98171.00
2019-03-31T17:20:18.650Z,98179.00
2019-03-31T17:22:48.105Z,98178.00
2019-03-31T17:25:17.490Z,98193.00
2019-03-31T17:27:46.852Z,98147.00
2019-03-31T17:30:16.460Z,98171.00
2019-03-31T17:32:45.820Z,98179.00
2019-03-31T17:35:16.736Z,98179.00
2019-03-31T17:37:46.243Z,98166.00
2019-03-31T17:40:15.612Z,98175.00
2019-03-31T17:42:44.981Z,98183.00
2019-03-31T17:45:17.209Z,98178.00
2019-03-31T17:47:45.658Z,98173.00
2019-03-31T17:50:15.092Z,98181.00
2019-03-31T17:52:44.477Z,98193.00
2019-03-31T17:55:14.171Z,98180.00
2019-03-31T17:57:43.537Z,98189.00
2019-03-31T18:00:13.783Z,98186.00
2019-03-31T18:02:43.322Z,98193.00
2019-03-31T18:05:12.747Z,98205.00
2019-03-31T18:07:42.151Z,98195.00
2019-03-31T18:10:20.816Z,98190.00
2019-03-31T18:12:50.465Z,98206.00
2019-03-31T18:15:19.935Z,98189.00
2019-03-31T18:17:49.315Z,98208.00
2019-03-31T18:20:18.671Z,98223.00
2019-03-31T18:22:48.053Z,98221.00
2019-03-31T18:25:17.420Z,98222.00
2019-03-31T18:27:46.796Z,98220.00
2019-03-31T18:30:17.524Z,98218.00
2019-03-31T18:32:46.887Z,98221.00
2019-03-31T18:35:16.879Z,98229.00
2019-03-31T18:37:47.206Z,98211.00
2019-03-31T18:40:16.529Z,98221.00
2019-03-31T18:42:45.898Z,98229.00
2019-03-31T18:45:15.344Z,98212.00
2019-03-31T18:47:44.699Z,98224.00
2019-03-31T18:50:19.811Z,98217.00
2019-03-31T18:52:49.266Z,98229.00
2019-03-31T18:55:23.089Z,98226.00
2019-03-31T18:58:03.864Z,98232.00
2019-03-31T19:00:37.721Z,98240.00
2019-03-31T19:03:17.498Z,98241.00
2019-03-31T19:05:54.412Z,98247.00
2019-03-31T19:08:31.615Z,98244.00
2019-03-31T19:11:02.620Z,98257.00
2019-03-31T19:13:33.615Z,98259.00
2019-03-31T19:16:19.365Z,98261.00
2019-03-31T19:19:05.212Z,98271.00
2019-03-31T19:21:36.267Z,98254.00
2019-03-31T19:24:12.768Z,98261.00
2019-03-31T19:26:50.225Z,98255.00
2019-03-31T19:29:23.937Z,98265.00
2019-03-31T19:32:00.658Z,98270.00
2019-03-31T19:34:34.357Z,98281.00
2019-03-31T19:37:08.042Z,98255.00
2019-03-31T19:39:55.587Z,98268.00
2019-03-31T19:42:42.933Z,98281.00
2019-03-31T19:45:14.004Z,98287.00
2019-03-31T19:48:00.265Z,98284.00
2019-03-31T19:50:33.957Z,98285.00
2019-03-31T19:53:20.673Z,98280.00
2019-03-31T19:55:51.722Z,98290.00
2019-03-31T19:58:22.704Z,98285.00
2019-03-31T20:01:04.109Z,98271.00
2019-03-31T20:03:38.330Z,98286.00
2019-03-31T20:06:18.248Z,98274.00
2019-03-31T20:09:03.931Z,98279.00
2019-03-31T20:11:37.655Z,98270.00
2019-03-31T20:14:17.543Z,98289.00
2019-03-31T20:16:49.220Z,98278.00
2019-03-31T20:19:23.177Z,98270.00
2019-03-31T20:21:54.177Z,98270.00
2019-03-31T20:24:28.345Z,98271.00
2019-03-31T20:26:59.338Z,98279.00
2019-03-31T20:29:30.349Z,98271.00
2019-03-31T20:32:13.656Z,98265.00
2019-03-31T20:34:44.646Z,98270.00
2019-03-31T20:37:18.598Z,98291.00
2019-03-31T20:40:04.644Z,98284.00
2019-03-31T20:42:35.635Z,98285.00
2019-03-31T20:45:08.159Z,98284.00
2019-03-31T20:47:38.280Z,98265.00
2019-03-31T20:50:07.877Z,98282.00
2019-03-31T20:52:37.231Z,98278.00
2019-03-31T20:55:16.299Z,98269.00
2019-03-31T20:57:38.109Z,98268.00
2019-03-31T21:00:11.838Z,98286.00
2019-03-31T21:02:42.284Z,98267.00
2019-03-31T21:05:11.703Z,98275.00
2019-03-31T21:07:41.050Z,98283.00
2019-03-31T21:10:10.655Z,98279.00
2019-03-31T21:12:40.013Z,98274.00
2019-03-31T21:15:09.597Z,98287.00
2019-03-31T21:17:39.002Z,98289.00
2019-03-31T21:20:08.515Z,98289.00
2019-03-31T21:22:37.862Z,98285.00
2019-03-31T21:25:08.560Z,98284.00
2019-03-31T21:27:37.914Z,98286.00
2019-03-31T21:30:07.904Z,98289.00
2019-03-31T21:32:37.273Z,98289.00
2019-03-31T21:35:07.763Z,98290.00
2019-03-31T21:37:37.124Z,98284.00
2019-03-31T21:40:07.933Z,98302.00
2019-03-31T21:42:37.281Z,98283.00
2019-03-31T21:45:07.072Z,98290.00
2019-03-31T21:47:36.466Z,98295.00
2019-03-31T21:50:08.322Z,98288.00
2019-03-31T21:52:37.716Z,98291.00
2019-03-31T21:55:07.627Z,98289.00
2019-03-31T21:57:36.976Z,98305.00
2019-03-31T22:00:10.590Z,98304.00
2019-03-31T22:02:40.503Z,98287.00
2019-03-31T22:05:11.034Z,98288.00
2019-03-31T22:07:40.380Z,98274.00
2019-03-31T22:10:10.466Z,98271.00
2019-03-31T22:12:39.825Z,98288.00
2019-03-31T22:15:09.417Z,98284.00
2019-03-31T22:17:38.801Z,98278.00
2019-03-31T22:20:09.062Z,98280.00
2019-03-31T22:22:38.407Z,98293.00
2019-03-31T22:25:08.242Z,98272.00
2019-03-31T22:27:37.605Z,98273.00
2019-03-31T22:30:08.254Z,98292.00
2019-03-31T22:32:37.620Z,98282.00
2019-03-31T22:35:07.353Z,98283.00
2019-03-31T22:37:36.707Z,98274.00
2019-03-31T22:40:07.396Z,98260.00
2019-03-31T22:42:36.743Z,98270.00
2019-03-31T22:45:07.392Z,98261.00
2019-03-31T22:47:37.145Z,98262.00
2019-03-31T22:50:07.412Z,98282.00
2019-03-31T22:52:36.762Z,98262.00
2019-03-31T22:55:07.641Z,98256.00
2019-03-31T22:57:37.482Z,98251.00
2019-03-31T23:00:09.081Z,98256.00
2019-03-31T23:02:38.487Z,98250.00
2019-03-31T23:05:08.279Z,98269.00
2019-03-31T23:07:39.025Z,98258.00
2019-03-31T23:10:08.552Z,98255.00
2019-03-31T23:12:37.902Z,98258.00
2019-03-31T23:15:08.255Z,98249.00
2019-03-31T23:17:37.631Z,98246.00
2019-03-31T23:20:07.231Z,98252.00
2019-03-31T23:22:36.575Z,98253.00
2019-03-31T23:25:07.843Z,98252.00
2019-03-31T23:27:37.198Z,98256.00
2019-03-31T23:30:10.315Z,98250.00
2019-03-31T23:32:39.713Z,98253.00
2019-03-31T23:35:09.313Z,98229.00
2019-03-31T23:37:38.667Z,98239.00
2019-03-31T23:40:08.576Z,98237.00
2019-03-31T23:42:37.920Z,98234.00
2019-03-31T23:45:07.973Z,98221.00
2019-03-31T23:47:37.409Z,98231.00
2019-03-31T23:50:07.293Z,98233.00
2019-03-31T23:52:36.623Z,98213.00
2019-03-31T23:55:06.483Z,98225.00
2019-03-31T23:57:44.757Z,98234.00
